sensor_id;sensor_type;location;lat;lon;timestamp;pressure;altitude;pressure_sealevel;temperature;humidity
65376;BME280;51976;47.332;9.404;2023-01-28T00:01:14;92889.75;;;18.92;30.04
65376;BME280;51976;47.332;9.404;2023-01-28T00:03:41;92891.34;;;18.93;30.23
65376;BME280;51976;47.332;9.404;2023-01-28T00:06:09;92886.69;;;18.94;30.14
65376;BME280;51976;47.332;9.404;2023-01-28T00:08:36;92882.66;;;18.91;30.36
65376;BME280;51976;47.332;9.404;2023-01-28T00:11:03;92888.94;;;18.92;30.31
65376;BME280;51976;47.332;9.404;2023-01-28T00:13:29;92883.81;;;18.90;30.42
65376;BME280;51976;47.332;9.404;2023-01-28T00:15:59;92888.94;;;18.92;30.23
65376;BME280;51976;47.332;9.404;2023-01-28T00:18:26;92888.94;;;18.92;30.45
65376;BME280;51976;47.332;9.404;2023-01-28T00:20:57;92879.00;;;18.87;30.40
65376;BME280;51976;47.332;9.404;2023-01-28T00:23:23;92883.34;;;18.88;30.50
65376;BME280;51976;47.332;9.404;2023-01-28T00:25:48;92873.69;;;18.91;30.44
65376;BME280;51976;47.332;9.404;2023-01-28T00:28:14;92869.34;;;18.90;30.12
65376;BME280;51976;47.332;9.404;2023-01-28T00:30:39;92878.34;;;18.90;30.43
65376;BME280;51976;47.332;9.404;2023-01-28T00:33:04;92876.41;;;18.91;30.37
65376;BME280;51976;47.332;9.404;2023-01-28T00:35:30;92877.06;;;18.88;30.33
65376;BME280;51976;47.332;9.404;2023-01-28T00:37:55;92872.78;;;18.87;30.36
65376;BME280;51976;47.332;9.404;2023-01-28T00:40:21;92871.97;;;18.86;30.46
65376;BME280;51976;47.332;9.404;2023-01-28T00:42:46;92871.16;;;18.86;30.40
65376;BME280;51976;47.332;9.404;2023-01-28T00:45:11;92866.84;;;18.85;30.54
65376;BME280;51976;47.332;9.404;2023-01-28T00:47:37;92871.50;;;18.84;30.18
65376;BME280;51976;47.332;9.404;2023-01-28T00:50:03;92863.78;;;18.86;30.28
65376;BME280;51976;47.332;9.404;2023-01-28T00:52:29;92872.78;;;18.87;30.28
65376;BME280;51976;47.332;9.404;2023-01-28T00:54:54;92868.88;;;18.88;30.31
65376;BME280;51976;47.332;9.404;2023-01-28T00:57:21;92870.03;;;18.87;30.28
65376;BME280;51976;47.332;9.404;2023-01-28T00:59:46;92869.25;;;18.86;30.45
65376;BME280;51976;47.332;9.404;2023-01-28T01:02:12;92877.06;;;18.88;30.17
65376;BME280;51976;47.332;9.404;2023-01-28T01:04:38;92875.03;;;18.85;30.41
65376;BME280;51976;47.332;9.404;2023-01-28T01:07:04;92877.06;;;18.88;30.18
65376;BME280;51976;47.332;9.404;2023-01-28T01:09:30;92884.94;;;18.89;30.41
65376;BME280;51976;47.332;9.404;2023-01-28T01:11:55;92883.00;;;18.90;30.16
65376;BME280;51976;47.332;9.404;2023-01-28T01:14:20;92883.00;;;18.90;30.10
65376;BME280;51976;47.332;9.404;2023-01-28T01:16:46;92879.00;;;18.87;30.33
65376;BME280;51976;47.332;9.404;2023-01-28T01:19:11;92882.53;;;18.88;30.50
65376;BME280;51976;47.332;9.404;2023-01-28T01:21:37;92885.25;;;18.88;30.30
65376;BME280;51976;47.332;9.404;2023-01-28T01:24:02;92883.69;;;18.87;30.28
65376;BME280;51976;47.332;9.404;2023-01-28T01:26:28;92877.06;;;18.88;30.38
65376;BME280;51976;47.332;9.404;2023-01-28T01:28:54;92885.97;;;18.85;30.38
65376;BME280;51976;47.332;9.404;2023-01-28T01:31:21;92884.03;;;18.85;30.40
65376;BME280;51976;47.332;9.404;2023-01-28T01:33:48;92883.69;;;18.87;30.27
65376;BME280;51976;47.332;9.404;2023-01-28T01:36:15;92888.69;;;18.85;30.17
65376;BME280;51976;47.332;9.404;2023-01-28T01:38:41;92888.69;;;18.85;30.16
65376;BME280;51976;47.332;9.404;2023-01-28T01:41:08;92887.88;;;18.84;30.15
65376;BME280;51976;47.332;9.404;2023-01-28T01:43:55;92887.41;;;18.82;30.42
65376;BME280;51976;47.332;9.404;2023-01-28T01:46:26;92889.81;;;18.84;30.39
65376;BME280;51976;47.332;9.404;2023-01-28T01:48:55;92889.03;;;18.83;30.21
65376;BME280;51976;47.332;9.404;2023-01-28T01:51:25;92887.41;;;18.82;30.31
65376;BME280;51976;47.332;9.404;2023-01-28T01:53:53;92894.47;;;18.83;29.99
65376;BME280;51976;47.332;9.404;2023-01-28T01:56:22;92889.34;;;18.82;30.49
65376;BME280;51976;47.332;9.404;2023-01-28T01:58:51;92890.63;;;18.84;30.21
65376;BME280;51976;47.332;9.404;2023-01-28T02:01:21;92890.94;;;18.83;30.08
65376;BME280;51976;47.332;9.404;2023-01-28T02:03:58;92894.00;;;18.81;30.26
65376;BME280;51976;47.332;9.404;2023-01-28T02:06:26;92883.56;;;18.83;30.18
65376;BME280;51976;47.332;9.404;2023-01-28T02:08:54;92896.41;;;18.83;30.33
65376;BME280;51976;47.332;9.404;2023-01-28T02:11:20;92885.97;;;18.85;30.13
65376;BME280;51976;47.332;9.404;2023-01-28T02:13:49;92887.09;;;18.84;29.99
65376;BME280;51976;47.332;9.404;2023-01-28T02:16:15;92890.16;;;18.82;30.08
65376;BME280;51976;47.332;9.404;2023-01-28T02:18:41;92892.09;;;18.82;30.48
65376;BME280;51976;47.332;9.404;2023-01-28T02:21:33;92889.81;;;18.84;30.47
65376;BME280;51976;47.332;9.404;2023-01-28T02:27:20;92895.63;;;18.82;30.09
65376;BME280;51976;47.332;9.404;2023-01-28T02:30:01;92894.81;;;18.82;30.28
65376;BME280;51976;47.332;9.404;2023-01-28T02:32:45;92888.22;;;18.83;30.24
65376;BME280;51976;47.332;9.404;2023-01-28T02:35:42;92886.16;;;18.80;30.11
65376;BME280;51976;47.332;9.404;2023-01-28T02:38:15;92892.09;;;18.82;30.26
65376;BME280;51976;47.332;9.404;2023-01-28T02:40:46;92886.16;;;18.80;30.29
65376;BME280;51976;47.332;9.404;2023-01-28T02:43:46;92886.28;;;18.83;30.17
65376;BME280;51976;47.332;9.404;2023-01-28T02:46:21;92886.28;;;18.83;30.22
65376;BME280;51976;47.332;9.404;2023-01-28T02:49:30;92889.81;;;18.84;30.16
65376;BME280;51976;47.332;9.404;2023-01-28T02:52:45;92890.16;;;18.82;30.29
65376;BME280;51976;47.332;9.404;2023-01-28T02:55:42;92883.09;;;18.81;30.24
65376;BME280;51976;47.332;9.404;2023-01-28T02:58:25;92885.03;;;18.81;30.21
65376;BME280;51976;47.332;9.404;2023-01-28T03:01:11;92891.28;;;18.81;30.45
65376;BME280;51976;47.332;9.404;2023-01-28T03:03:59;92881.97;;;18.82;30.15
65376;BME280;51976;47.332;9.404;2023-01-28T03:06:34;92889.34;;;18.82;30.18
65376;BME280;51976;47.332;9.404;2023-01-28T03:09:05;92889.50;;;18.85;30.28
65376;BME280;51976;47.332;9.404;2023-01-28T03:12:02;92890.94;;;18.83;30.15
65376;BME280;51976;47.332;9.404;2023-01-28T03:15:03;92903.81;;;18.82;30.15
65376;BME280;51976;47.332;9.404;2023-01-28T03:17:56;92900.28;;;18.82;30.13
65376;BME280;51976;47.332;9.404;2023-01-28T03:21:14;92890.00;;;18.79;30.35
65376;BME280;51976;47.332;9.404;2023-01-28T03:24:05;92898.19;;;18.79;30.38
65376;BME280;51976;47.332;9.404;2023-01-28T03:27:18;92900.28;;;18.82;30.05
65376;BME280;51976;47.332;9.404;2023-01-28T03:30:10;92896.75;;;18.81;30.21
65376;BME280;51976;47.332;9.404;2023-01-28T03:32:58;92898.53;;;18.77;30.06
65376;BME280;51976;47.332;9.404;2023-01-28T03:35:44;92901.25;;;18.77;30.10
65376;BME280;51976;47.332;9.404;2023-01-28T03:38:31;92905.91;;;18.77;30.14
65376;BME280;51976;47.332;9.404;2023-01-28T03:41:02;92905.59;;;18.78;30.26
65376;BME280;51976;47.332;9.404;2023-01-28T03:43:28;92903.19;;;18.77;30.49
65376;BME280;51976;47.332;9.404;2023-01-28T03:45:54;92906.72;;;18.77;30.43
65376;BME280;51976;47.332;9.404;2023-01-28T03:48:22;92907.53;;;18.78;30.26
65376;BME280;51976;47.332;9.404;2023-01-28T03:50:49;92913.31;;;18.76;30.11
65376;BME280;51976;47.332;9.404;2023-01-28T03:53:15;92914.59;;;18.79;30.02
65376;BME280;51976;47.332;9.404;2023-01-28T03:55:41;92910.25;;;18.78;30.36
65376;BME280;51976;47.332;9.404;2023-01-28T03:58:08;92915.06;;;18.81;30.35
65376;BME280;51976;47.332;9.404;2023-01-28T04:00:34;92908.00;;;18.80;30.10
65376;BME280;51976;47.332;9.404;2023-01-28T04:03:03;92912.66;;;18.79;29.99
65376;BME280;51976;47.332;9.404;2023-01-28T04:05:29;92911.53;;;18.80;30.14
65376;BME280;51976;47.332;9.404;2023-01-28T04:07:55;92912.34;;;18.81;30.21
65376;BME280;51976;47.332;9.404;2023-01-28T04:10:21;92912.81;;;18.83;30.08
65376;BME280;51976;47.332;9.404;2023-01-28T04:12:46;92906.88;;;18.81;30.25
65376;BME280;51976;47.332;9.404;2023-01-28T04:15:15;92909.59;;;18.81;30.07
65376;BME280;51976;47.332;9.404;2023-01-28T04:17:44;92911.84;;;18.79;30.44
65376;BME280;51976;47.332;9.404;2023-01-28T04:20:10;92908.00;;;18.80;30.11
65376;BME280;51976;47.332;9.404;2023-01-28T04:22:37;92905.59;;;18.78;30.00
65376;BME280;51976;47.332;9.404;2023-01-28T04:25:02;92904.13;;;18.81;30.00
65376;BME280;51976;47.332;9.404;2023-01-28T04:27:28;92910.72;;;18.80;30.37
65376;BME280;51976;47.332;9.404;2023-01-28T04:29:53;92909.13;;;18.79;30.18
65376;BME280;51976;47.332;9.404;2023-01-28T04:32:18;92911.84;;;18.79;30.07
65376;BME280;51976;47.332;9.404;2023-01-28T04:34:44;92918.91;;;18.80;30.30
65376;BME280;51976;47.332;9.404;2023-01-28T04:37:09;92920.06;;;18.79;30.28
65376;BME280;51976;47.332;9.404;2023-01-28T04:39:34;92913.00;;;18.78;30.18
65376;BME280;51976;47.332;9.404;2023-01-28T04:42:00;92920.06;;;18.79;30.29
65376;BME280;51976;47.332;9.404;2023-01-28T04:44:25;92916.19;;;18.80;30.11
65376;BME280;51976;47.332;9.404;2023-01-28T04:46:50;92920.53;;;18.81;30.02
65376;BME280;51976;47.332;9.404;2023-01-28T04:49:16;92919.25;;;18.78;30.22
65376;BME280;51976;47.332;9.404;2023-01-28T04:51:41;92930.97;;;18.79;30.35
65376;BME280;51976;47.332;9.404;2023-01-28T04:54:07;92926.66;;;18.78;30.12
65376;BME280;51976;47.332;9.404;2023-01-28T04:56:32;92934.50;;;18.79;29.95
65376;BME280;51976;47.332;9.404;2023-01-28T04:58:57;92933.22;;;18.77;30.19
65376;BME280;51976;47.332;9.404;2023-01-28T05:01:23;92935.97;;;18.77;30.15
65376;BME280;51976;47.332;9.404;2023-01-28T05:03:49;92936.28;;;18.75;30.09
65376;BME280;51976;47.332;9.404;2023-01-28T05:06:14;92936.28;;;18.75;30.16
65376;BME280;51976;47.332;9.404;2023-01-28T05:08:40;92939.50;;;18.77;30.09
65376;BME280;51976;47.332;9.404;2023-01-28T05:11:05;92943.34;;;18.76;30.04
65376;BME280;51976;47.332;9.404;2023-01-28T05:13:31;92943.34;;;18.76;30.00
65376;BME280;51976;47.332;9.404;2023-01-28T05:15:57;92939.81;;;18.76;30.02
65376;BME280;51976;47.332;9.404;2023-01-28T05:18:22;92941.28;;;18.73;30.06
65376;BME280;51976;47.332;9.404;2023-01-28T05:20:48;92949.47;;;18.73;29.93
65376;BME280;51976;47.332;9.404;2023-01-28T05:23:13;92949.94;;;18.75;30.27
65376;BME280;51976;47.332;9.404;2023-01-28T05:25:38;92949.94;;;18.75;30.15
65376;BME280;51976;47.332;9.404;2023-01-28T05:28:04;92948.03;;;18.76;30.29
65376;BME280;51976;47.332;9.404;2023-01-28T05:30:29;92949.94;;;18.75;30.29
65376;BME280;51976;47.332;9.404;2023-01-28T05:32:55;92950.28;;;18.74;30.41
65376;BME280;51976;47.332;9.404;2023-01-28T05:35:21;92952.34;;;18.77;30.23
65376;BME280;51976;47.332;9.404;2023-01-28T05:37:47;92959.09;;;18.79;29.98
65376;BME280;51976;47.332;9.404;2023-01-28T05:40:12;92964.88;;;18.78;29.90
65376;BME280;51976;47.332;9.404;2023-01-28T05:42:38;92962.16;;;18.78;30.25
65376;BME280;51976;47.332;9.404;2023-01-28T05:45:03;92966.00;;;18.77;30.28
65376;BME280;51976;47.332;9.404;2023-01-28T05:47:29;92964.88;;;18.78;30.35
65376;BME280;51976;47.332;9.404;2023-01-28T05:49:55;92966.47;;;18.79;30.04
65376;BME280;51976;47.332;9.404;2023-01-28T05:52:20;92962.47;;;18.76;29.95
65376;BME280;51976;47.332;9.404;2023-01-28T05:54:46;92969.06;;;18.75;30.17
65376;BME280;51976;47.332;9.404;2023-01-28T05:57:11;92964.06;;;18.77;30.16
65376;BME280;51976;47.332;9.404;2023-01-28T05:59:36;92976.94;;;18.77;30.16
65376;BME280;51976;47.332;9.404;2023-01-28T06:02:02;92965.19;;;18.76;30.00
65376;BME280;51976;47.332;9.404;2023-01-28T06:04:27;92979.34;;;18.78;30.01
65376;BME280;51976;47.332;9.404;2023-01-28T06:06:52;92981.56;;;18.85;30.00
65376;BME280;51976;47.332;9.404;2023-01-28T06:09:18;92969.63;;;18.89;29.86
65376;BME280;51976;47.332;9.404;2023-01-28T06:11:43;92976.34;;;18.92;29.97
65376;BME280;51976;47.332;9.404;2023-01-28T06:14:09;92978.09;;;18.97;30.00
65376;BME280;51976;47.332;9.404;2023-01-28T06:16:35;92985.31;;;19.01;29.77
65376;BME280;51976;47.332;9.404;2023-01-28T06:19:00;92986.09;;;19.02;30.06
65376;BME280;51976;47.332;9.404;2023-01-28T06:21:26;92990.91;;;19.05;30.00
65376;BME280;51976;47.332;9.404;2023-01-28T06:23:51;92991.06;;;19.08;29.71
65376;BME280;51976;47.332;9.404;2023-01-28T06:26:17;92998.13;;;19.09;29.83
65376;BME280;51976;47.332;9.404;2023-01-28T06:28:42;92993.94;;;19.12;29.89
65376;BME280;51976;47.332;9.404;2023-01-28T06:31:07;92992.78;;;19.13;29.64
65376;BME280;51976;47.332;9.404;2023-01-28T06:33:33;92992.91;;;19.16;29.91
65376;BME280;51976;47.332;9.404;2023-01-28T06:36:01;92989.84;;;19.18;29.90
65376;BME280;51976;47.332;9.404;2023-01-28T06:38:27;93000.13;;;19.21;29.88
65376;BME280;51976;47.332;9.404;2023-01-28T06:40:53;92994.97;;;19.19;29.68
65376;BME280;51976;47.332;9.404;2023-01-28T06:43:20;93003.66;;;19.21;29.71
65376;BME280;51976;47.332;9.404;2023-01-28T06:45:52;93000.13;;;19.21;29.90
65376;BME280;51976;47.332;9.404;2023-01-28T06:48:17;93005.06;;;19.27;29.64
65376;BME280;51976;47.332;9.404;2023-01-28T06:50:45;92994.94;;;19.28;29.67
65376;BME280;51976;47.332;9.404;2023-01-28T06:53:11;93009.72;;;19.27;29.82
65376;BME280;51976;47.332;9.404;2023-01-28T06:55:36;93006.66;;;19.28;29.96
65376;BME280;51976;47.332;9.404;2023-01-28T06:58:01;93009.41;;;19.28;29.87
65376;BME280;51976;47.332;9.404;2023-01-28T07:00:27;93001.19;;;19.28;29.54
65376;BME280;51976;47.332;9.404;2023-01-28T07:02:55;93002.00;;;19.29;29.54
65376;BME280;51976;47.332;9.404;2023-01-28T07:05:21;93006.00;;;19.32;29.84
65376;BME280;51976;47.332;9.404;2023-01-28T07:07:46;93000.53;;;19.32;29.96
65376;BME280;51976;47.332;9.404;2023-01-28T07:10:12;93000.53;;;19.32;29.74
65376;BME280;51976;47.332;9.404;2023-01-28T07:12:38;93005.34;;;19.35;29.94
65376;BME280;51976;47.332;9.404;2023-01-28T07:15:03;93004.88;;;19.33;29.52
65376;BME280;51976;47.332;9.404;2023-01-28T07:17:29;93012.28;;;19.32;29.70
65376;BME280;51976;47.332;9.404;2023-01-28T07:19:54;92996.69;;;19.33;29.77
65376;BME280;51976;47.332;9.404;2023-01-28T07:22:20;93003.28;;;19.32;30.02
65376;BME280;51976;47.332;9.404;2023-01-28T07:24:45;93017.41;;;19.34;29.73
65376;BME280;51976;47.332;9.404;2023-01-28T07:27:10;93017.41;;;19.34;29.87
65376;BME280;51976;47.332;9.404;2023-01-28T07:29:36;93024.81;;;19.33;29.79
65376;BME280;51976;47.332;9.404;2023-01-28T07:32:01;93013.88;;;19.33;29.48
65376;BME280;51976;47.332;9.404;2023-01-28T07:34:29;93022.53;;;19.35;29.92
65376;BME280;51976;47.332;9.404;2023-01-28T07:36:54;93026.88;;;19.36;29.93
65376;BME280;51976;47.332;9.404;2023-01-28T07:39:20;93036.69;;;19.37;29.87
65376;BME280;51976;47.332;9.404;2023-01-28T07:41:45;93031.22;;;19.37;29.72
65376;BME280;51976;47.332;9.404;2023-01-28T07:44:11;93032.03;;;19.38;29.75
65376;BME280;51976;47.332;9.404;2023-01-28T07:46:37;93032.03;;;19.38;29.90
65376;BME280;51976;47.332;9.404;2023-01-28T07:49:02;93032.81;;;19.38;29.64
65376;BME280;51976;47.332;9.404;2023-01-28T07:51:27;93033.63;;;19.39;29.89
65376;BME280;51976;47.332;9.404;2023-01-28T07:53:53;93037.97;;;19.40;29.77
65376;BME280;51976;47.332;9.404;2023-01-28T07:56:18;93025.81;;;19.28;29.63
65376;BME280;51976;47.332;9.404;2023-01-28T07:58:44;93056.28;;;19.39;29.69
65376;BME280;51976;47.332;9.404;2023-01-28T08:01:09;93047.75;;;19.41;29.57
65376;BME280;51976;47.332;9.404;2023-01-28T08:03:34;93055.59;;;19.42;29.91
65376;BME280;51976;47.332;9.404;2023-01-28T08:06:00;93061.06;;;19.42;29.78
65376;BME280;51976;47.332;9.404;2023-01-28T08:08:26;93061.88;;;19.43;29.74
65376;BME280;51976;47.332;9.404;2023-01-28T08:10:52;93061.88;;;19.43;29.92
65376;BME280;51976;47.332;9.404;2023-01-28T08:13:18;93065.56;;;19.47;29.66
65376;BME280;51976;47.332;9.404;2023-01-28T08:15:44;93065.75;;;19.42;29.92
65376;BME280;51976;47.332;9.404;2023-01-28T08:18:11;93065.88;;;19.45;29.66
65376;BME280;51976;47.332;9.404;2023-01-28T08:20:37;93061.88;;;19.43;29.89
65376;BME280;51976;47.332;9.404;2023-01-28T08:23:17;93071.69;;;19.44;30.01
65376;BME280;51976;47.332;9.404;2023-01-28T08:25:42;93066.22;;;19.44;29.65
65376;BME280;51976;47.332;9.404;2023-01-28T08:28:08;93076.00;;;19.45;29.76
65376;BME280;51976;47.332;9.404;2023-01-28T08:30:35;93072.47;;;19.44;29.67
65376;BME280;51976;47.332;9.404;2023-01-28T08:33:02;93076.50;;;19.47;29.83
65376;BME280;51976;47.332;9.404;2023-01-28T08:35:28;93083.09;;;19.46;29.50
65376;BME280;51976;47.332;9.404;2023-01-28T08:37:53;93085.50;;;19.47;29.87
65376;BME280;51976;47.332;9.404;2023-01-28T08:40:20;93090.16;;;19.47;29.72
65376;BME280;51976;47.332;9.404;2023-01-28T08:42:47;93091.75;;;19.48;29.96
65376;BME280;51976;47.332;9.404;2023-01-28T08:45:13;93091.75;;;19.48;29.48
65376;BME280;51976;47.332;9.404;2023-01-28T08:47:55;93094.03;;;19.46;29.88
65376;BME280;51976;47.332;9.404;2023-01-28T08:50:22;93097.22;;;19.48;29.64
65376;BME280;51976;47.332;9.404;2023-01-28T08:52:56;93104.31;;;19.49;29.84
65376;BME280;51976;47.332;9.404;2023-01-28T08:55:23;93104.63;;;19.47;29.98
65376;BME280;51976;47.332;9.404;2023-01-28T08:57:48;93101.09;;;19.47;29.60
65376;BME280;51976;47.332;9.404;2023-01-28T09:00:14;93101.91;;;19.47;29.85
65376;BME280;51976;47.332;9.404;2023-01-28T09:02:39;93111.38;;;19.50;29.97
65376;BME280;51976;47.332;9.404;2023-01-28T09:05:05;93111.69;;;19.48;29.88
65376;BME280;51976;47.332;9.404;2023-01-28T09:07:31;93108.16;;;19.48;29.79
65376;BME280;51976;47.332;9.404;2023-01-28T09:09:58;93105.44;;;19.48;29.82
65376;BME280;51976;47.332;9.404;2023-01-28T09:12:23;93109.63;;;19.45;29.72
65376;BME280;51976;47.332;9.404;2023-01-28T09:14:49;93107.03;;;19.49;29.83
65376;BME280;51976;47.332;9.404;2023-01-28T09:17:14;93104.31;;;19.49;29.75
65376;BME280;51976;47.332;9.404;2023-01-28T09:19:39;93111.38;;;19.50;29.84
65376;BME280;51976;47.332;9.404;2023-01-28T09:22:05;93113.31;;;19.49;29.71
65376;BME280;51976;47.332;9.404;2023-01-28T09:24:30;93112.22;;;19.50;30.01
65376;BME280;51976;47.332;9.404;2023-01-28T09:26:56;93118.47;;;19.51;29.73
65376;BME280;51976;47.332;9.404;2023-01-28T09:29:21;93117.66;;;19.50;29.71
65376;BME280;51976;47.332;9.404;2023-01-28T09:31:46;93118.47;;;19.51;29.81
65376;BME280;51976;47.332;9.404;2023-01-28T09:34:12;93123.94;;;19.51;29.68
65376;BME280;51976;47.332;9.404;2023-01-28T09:36:37;93122.00;;;19.51;29.79
65376;BME280;51976;47.332;9.404;2023-01-28T09:39:03;93126.34;;;19.52;29.78
65376;BME280;51976;47.332;9.404;2023-01-28T09:41:46;93125.53;;;19.52;29.83
65376;BME280;51976;47.332;9.404;2023-01-28T09:44:42;93129.56;;;19.54;29.91
65376;BME280;51976;47.332;9.404;2023-01-28T09:47:23;93110.44;;;19.46;29.88
65376;BME280;51976;47.332;9.404;2023-01-28T09:49:53;93129.09;;;19.52;29.89
65376;BME280;51976;47.332;9.404;2023-01-28T09:52:22;93127.16;;;19.53;29.96
65376;BME280;51976;47.332;9.404;2023-01-28T09:54:59;93131.50;;;19.54;29.92
65376;BME280;51976;47.332;9.404;2023-01-28T09:57:35;93124.41;;;19.53;29.75
65376;BME280;51976;47.332;9.404;2023-01-28T10:00:02;93130.34;;;19.55;29.92
65376;BME280;51976;47.332;9.404;2023-01-28T10:02:54;93138.56;;;19.55;29.96
65376;BME280;51976;47.332;9.404;2023-01-28T10:06:16;93126.03;;;19.54;29.94
65376;BME280;51976;47.332;9.404;2023-01-28T10:09:47;93126.16;;;19.57;29.74
65376;BME280;51976;47.332;9.404;2023-01-28T10:12:00;93120.88;;;19.52;29.71
65376;BME280;51976;47.332;9.404;2023-01-28T10:17:33;93120.22;;;19.55;29.78
65376;BME280;51976;47.332;9.404;2023-01-28T10:20:22;93114.41;;;19.57;29.96
65376;BME280;51976;47.332;9.404;2023-01-28T10:23:07;93115.56;;;19.56;29.84
65376;BME280;51976;47.332;9.404;2023-01-28T10:25:35;93114.75;;;19.55;29.82
65376;BME280;51976;47.332;9.404;2023-01-28T10:28:07;93113.94;;;19.55;29.78
65376;BME280;51976;47.332;9.404;2023-01-28T10:30:41;93108.47;;;19.55;29.96
65376;BME280;51976;47.332;9.404;2023-01-28T10:33:35;93106.88;;;19.54;29.73
65376;BME280;51976;47.332;9.404;2023-01-28T10:36:02;93101.88;;;19.56;30.04
65376;BME280;51976;47.332;9.404;2023-01-28T10:38:28;93102.69;;;19.56;30.08
65376;BME280;51976;47.332;9.404;2023-01-28T10:40:59;93103.97;;;19.59;29.94
65376;BME280;51976;47.332;9.404;2023-01-28T10:43:29;93098.50;;;19.59;29.95
65376;BME280;51976;47.332;9.404;2023-01-28T10:46:02;93091.09;;;19.59;29.80
65376;BME280;51976;47.332;9.404;2023-01-28T10:48:32;93085.16;;;19.57;29.75
65376;BME280;51976;47.332;9.404;2023-01-28T10:51:00;93088.69;;;19.58;29.89
65376;BME280;51976;47.332;9.404;2023-01-28T10:53:40;93091.09;;;19.59;30.23
65376;BME280;51976;47.332;9.404;2023-01-28T10:56:17;93084.81;;;19.59;30.19
65376;BME280;51976;47.332;9.404;2023-01-28T10:58:59;93084.81;;;19.59;29.94
65376;BME280;51976;47.332;9.404;2023-01-28T11:01:37;93079.34;;;19.59;29.69
65376;BME280;51976;47.332;9.404;2023-01-28T11:04:03;93089.16;;;19.60;29.88
65376;BME280;51976;47.332;9.404;2023-01-28T11:06:29;93090.75;;;19.61;29.96
65376;BME280;51976;47.332;9.404;2023-01-28T11:08:54;93096.22;;;19.61;29.90
65376;BME280;51976;47.332;9.404;2023-01-28T11:11:24;93085.28;;;19.61;29.71
65376;BME280;51976;47.332;9.404;2023-01-28T11:13:51;93097.03;;;19.62;29.88
65376;BME280;51976;47.332;9.404;2023-01-28T11:16:18;93101.69;;;19.61;30.07
65376;BME280;51976;47.332;9.404;2023-01-28T11:18:51;93106.03;;;19.62;29.77
65376;BME280;51976;47.332;9.404;2023-01-28T11:21:23;93106.38;;;19.60;30.01
65376;BME280;51976;47.332;9.404;2023-01-28T11:23:59;93099.28;;;19.59;29.88
65376;BME280;51976;47.332;9.404;2023-01-28T11:26:28;93109.56;;;19.63;29.83
65376;BME280;51976;47.332;9.404;2023-01-28T11:28:55;93109.91;;;19.61;30.18
65376;BME280;51976;47.332;9.404;2023-01-28T11:31:21;93105.88;;;19.58;29.86
65376;BME280;51976;47.332;9.404;2023-01-28T11:33:55;93111.03;;;19.60;29.75
65376;BME280;51976;47.332;9.404;2023-01-28T11:36:24;93115.69;;;19.59;29.81
65376;BME280;51976;47.332;9.404;2023-01-28T11:38:53;93111.03;;;19.60;30.08
65376;BME280;51976;47.332;9.404;2023-01-28T11:41:31;93111.50;;;19.62;30.17
65376;BME280;51976;47.332;9.404;2023-01-28T11:43:58;93109.44;;;19.59;30.15
65376;BME280;51976;47.332;9.404;2023-01-28T11:46:45;93110.56;;;19.58;29.86
65376;BME280;51976;47.332;9.404;2023-01-28T11:49:54;93110.22;;;19.59;29.96
65376;BME280;51976;47.332;9.404;2023-01-28T11:52:43;93106.22;;;19.57;29.99
65376;BME280;51976;47.332;9.404;2023-01-28T11:55:30;93109.44;;;19.59;30.02
65376;BME280;51976;47.332;9.404;2023-01-28T12:01:08;93094.63;;;19.60;30.13
65376;BME280;51976;47.332;9.404;2023-01-28T12:04:05;93094.63;;;19.60;30.16
65376;BME280;51976;47.332;9.404;2023-01-28T12:06:54;93095.44;;;19.60;29.96
65376;BME280;51976;47.332;9.404;2023-01-28T12:09:34;93094.63;;;19.60;30.05
65376;BME280;51976;47.332;9.404;2023-01-28T12:12:20;93088.81;;;19.62;30.24
65376;BME280;51976;47.332;9.404;2023-01-28T12:15:22;93094.75;;;19.64;30.15
65376;BME280;51976;47.332;9.404;2023-01-28T12:18:17;93095.09;;;19.62;30.16
65376;BME280;51976;47.332;9.404;2023-01-28T12:21:05;93095.56;;;19.64;30.15
65376;BME280;51976;47.332;9.404;2023-01-28T12:24:00;93090.91;;;19.65;29.97
65376;BME280;51976;47.332;9.404;2023-01-28T12:26:48;93093.31;;;19.66;30.08
65376;BME280;51976;47.332;9.404;2023-01-28T12:29:46;93083.16;;;19.67;30.05
65376;BME280;51976;47.332;9.404;2023-01-28T12:32:40;93087.84;;;19.66;30.07
65376;BME280;51976;47.332;9.404;2023-01-28T12:35:21;93086.38;;;19.69;30.18
65376;BME280;51976;47.332;9.404;2023-01-28T12:38:04;93087.50;;;19.68;30.17
65376;BME280;51976;47.332;9.404;2023-01-28T12:40:53;93087.84;;;19.66;30.02
65376;BME280;51976;47.332;9.404;2023-01-28T12:43:32;93092.75;;;19.73;30.05
65376;BME280;51976;47.332;9.404;2023-01-28T12:46:25;93086.38;;;19.69;29.81
65376;BME280;51976;47.332;9.404;2023-01-28T12:48:58;93082.47;;;19.70;30.20
65376;BME280;51976;47.332;9.404;2023-01-28T12:54:20;93082.59;;;19.73;30.00
65376;BME280;51976;47.332;9.404;2023-01-28T12:56:51;93083.28;;;19.70;30.03
65376;BME280;51976;47.332;9.404;2023-01-28T12:59:27;93085.19;;;19.70;30.22
65376;BME280;51976;47.332;9.404;2023-01-28T13:02:04;93088.06;;;19.73;30.10
65376;BME280;51976;47.332;9.404;2023-01-28T13:04:39;93087.41;;;19.76;30.07
65376;BME280;51976;47.332;9.404;2023-01-28T13:07:15;93088.88;;;19.74;30.05
65376;BME280;51976;47.332;9.404;2023-01-28T13:09:52;93085.34;;;19.73;30.18
65376;BME280;51976;47.332;9.404;2023-01-28T13:12:20;93085.69;;;19.72;30.02
65376;BME280;51976;47.332;9.404;2023-01-28T13:14:47;93094.34;;;19.74;29.94
65376;BME280;51976;47.332;9.404;2023-01-28T13:17:29;93098.22;;;19.73;29.98
65376;BME280;51976;47.332;9.404;2023-01-28T13:19:57;93100.47;;;19.71;30.04
65376;BME280;51976;47.332;9.404;2023-01-28T13:22:33;93102.09;;;19.72;30.20
65376;BME280;51976;47.332;9.404;2023-01-28T13:25:20;93106.75;;;19.71;30.18
65376;BME280;51976;47.332;9.404;2023-01-28T13:28:00;93110.63;;;19.70;30.15
65376;BME280;51976;47.332;9.404;2023-01-28T13:30:29;93105.97;;;19.71;29.75
65376;BME280;51976;47.332;9.404;2023-01-28T13:32:57;93109.16;;;19.73;29.96
65376;BME280;51976;47.332;9.404;2023-01-28T13:35:30;93110.63;;;19.70;30.27